createdAt,value
2019-04-14T00:01:47.690Z,6.66
2019-04-14T00:04:40.286Z,6.65
2019-04-14T00:07:08.404Z,6.66
2019-04-14T00:09:36.479Z,6.68
2019-04-14T00:12:07.420Z,6.68
2019-04-14T00:14:35.748Z,6.68
2019-04-14T00:17:06.498Z,6.69
2019-04-14T00:19:34.932Z,6.70
2019-04-14T00:22:03.524Z,6.71
2019-04-14T00:24:32.050Z,6.70
2019-04-14T00:27:00.581Z,6.72
2019-04-14T00:29:28.790Z,6.71
2019-04-14T00:31:58.702Z,6.72
2019-04-14T00:35:04.432Z,6.71
2019-04-14T00:37:40.255Z,6.73
2019-04-14T00:40:17.231Z,6.75
2019-04-14T00:43:13.795Z,6.76
2019-04-14T00:45:56.075Z,6.75
2019-04-14T00:48:25.780Z,6.74
2019-04-14T00:50:54.065Z,6.73
2019-04-14T00:53:22.847Z,6.73
2019-04-14T00:55:51.153Z,6.73
2019-04-14T00:58:19.312Z,6.73
2019-04-14T01:00:47.460Z,6.73
2019-04-14T01:03:16.199Z,6.74
2019-04-14T01:05:44.185Z,6.73
2019-04-14T01:08:12.206Z,6.74
2019-04-14T01:10:41.192Z,6.73
2019-04-14T01:13:12.598Z,6.73
2019-04-14T01:15:51.222Z,6.74
2019-04-14T01:18:12.453Z,6.75
2019-04-14T01:20:40.684Z,6.74
2019-04-14T01:23:08.627Z,6.74
2019-04-14T01:25:36.826Z,6.74
2019-04-14T01:28:05.152Z,6.73
2019-04-14T01:30:33.168Z,6.74
2019-04-14T01:33:01.219Z,6.76
2019-04-14T01:35:29.273Z,6.76
2019-04-14T01:37:57.701Z,6.76
2019-04-14T01:40:25.586Z,6.80
2019-04-14T01:42:54.824Z,6.80
2019-04-14T01:45:25.215Z,6.66
2019-04-14T01:47:53.417Z,6.79
2019-04-14T01:50:25.647Z,6.78
2019-04-14T01:53:07.816Z,6.80
2019-04-14T01:55:54.805Z,6.80
2019-04-14T01:58:27.827Z,6.76
2019-04-14T02:01:15.376Z,6.80
2019-04-14T02:03:54.554Z,6.79
2019-04-14T02:06:22.764Z,6.78
2019-04-14T02:08:52.029Z,6.76
2019-04-14T02:11:20.653Z,6.76
2019-04-14T02:13:48.752Z,6.78
2019-04-14T02:16:25.916Z,6.80
2019-04-14T02:18:47.438Z,6.80
2019-04-14T02:21:17.250Z,6.80
2019-04-14T02:23:45.430Z,6.80
2019-04-14T02:26:13.468Z,6.80
2019-04-14T02:28:41.873Z,6.79
2019-04-14T02:31:26.406Z,6.78
2019-04-14T02:34:09.775Z,6.79
2019-04-14T02:36:41.689Z,6.77
2019-04-14T02:39:08.636Z,6.80
2019-04-14T02:41:35.744Z,6.80
2019-04-14T02:44:24.063Z,6.80
2019-04-14T02:46:38.437Z,6.78
2019-04-14T02:49:08.326Z,6.79
2019-04-14T02:51:35.042Z,6.76
2019-04-14T02:54:10.095Z,6.76
2019-04-14T02:56:36.906Z,6.79
2019-04-14T03:04:05.896Z,6.76
2019-04-14T03:06:33.594Z,6.76
2019-04-14T03:09:07.994Z,6.75
2019-04-14T03:11:44.426Z,6.75
2019-04-14T03:14:11.711Z,6.74
2019-04-14T03:17:11.113Z,6.61
2019-04-14T03:19:58.154Z,6.73
2019-04-14T03:23:13.277Z,6.71
2019-04-14T03:25:34.280Z,6.70
2019-04-14T03:31:37.541Z,6.73
2019-04-14T03:34:18.197Z,6.73
2019-04-14T03:41:24.209Z,6.74
2019-04-14T03:44:03.187Z,6.74
2019-04-14T03:46:25.380Z,6.75
2019-04-14T03:48:58.677Z,6.77
2019-04-14T03:53:50.873Z,6.74
2019-04-14T03:56:31.305Z,6.74
2019-04-14T03:58:59.903Z,6.73
2019-04-14T04:01:28.048Z,6.74
2019-04-14T04:03:56.409Z,6.73
2019-04-14T04:06:24.680Z,6.73
2019-04-14T04:08:53.121Z,6.75
2019-04-14T04:11:21.465Z,6.74
2019-04-14T04:13:49.900Z,6.73
2019-04-14T04:16:35.548Z,6.74
2019-04-14T04:19:25.130Z,6.74
2019-04-14T04:22:12.923Z,6.74
2019-04-14T04:24:48.254Z,6.75
2019-04-14T04:27:33.410Z,6.76
2019-04-14T04:30:23.667Z,6.75
2019-04-14T04:33:04.464Z,6.76
2019-04-14T04:35:47.885Z,6.75
2019-04-14T04:38:38.287Z,6.77
2019-04-14T04:41:06.425Z,6.77
2019-04-14T04:43:36.434Z,6.76
2019-04-14T04:46:04.902Z,6.76
2019-04-14T04:48:32.979Z,6.79
2019-04-14T04:51:00.908Z,6.76
2019-04-14T04:53:28.872Z,6.76
2019-04-14T04:55:57.006Z,6.76
2019-04-14T04:58:26.023Z,6.76
2019-04-14T05:00:56.028Z,6.77
2019-04-14T05:03:25.334Z,6.79
2019-04-14T05:09:23.069Z,6.81
2019-04-14T05:12:10.998Z,6.80
2019-04-14T05:14:46.424Z,6.80
2019-04-14T05:17:15.541Z,6.81
2019-04-14T05:19:43.635Z,6.82
2019-04-14T05:22:14.820Z,6.85
2019-04-14T05:24:41.817Z,6.86
2019-04-14T05:27:10.061Z,6.88
2019-04-14T05:29:38.616Z,6.90
2019-04-14T05:32:06.723Z,6.93
2019-04-14T05:34:34.789Z,6.95
2019-04-14T05:37:02.962Z,6.98
2019-04-14T05:39:31.375Z,7.02
2019-04-14T05:42:06.566Z,7.07
2019-04-14T05:44:29.732Z,7.09
2019-04-14T05:46:57.946Z,7.13
2019-04-14T05:49:34.827Z,7.04
2019-04-14T05:51:56.684Z,7.16
2019-04-14T05:54:25.230Z,7.14
2019-04-14T05:56:53.760Z,7.15
2019-04-14T05:59:22.202Z,7.07
2019-04-14T06:01:51.088Z,7.12
2019-04-14T06:04:20.040Z,7.12
2019-04-14T06:06:48.206Z,7.17
2019-04-14T06:09:16.245Z,7.18
2019-04-14T06:11:44.918Z,7.22
2019-04-14T06:14:12.887Z,7.21
2019-04-14T06:16:40.798Z,7.24
2019-04-14T06:19:08.731Z,7.31
2019-04-14T06:21:36.858Z,7.36
2019-04-14T06:24:05.015Z,7.41
2019-04-14T06:26:34.996Z,7.45
2019-04-14T06:29:03.790Z,7.46
2019-04-14T06:31:53.809Z,7.45
2019-04-14T06:34:26.595Z,7.48
2019-04-14T06:37:13.945Z,7.54
2019-04-14T06:39:44.539Z,7.63
2019-04-14T06:42:12.741Z,7.76
2019-04-14T06:44:41.300Z,7.80
2019-04-14T06:47:09.316Z,7.81
2019-04-14T06:49:48.412Z,7.79
2019-04-14T06:52:08.349Z,7.82
2019-04-14T06:54:36.302Z,7.74
2019-04-14T06:57:04.388Z,7.80
2019-04-14T06:59:32.495Z,7.83
2019-04-14T07:02:01.838Z,7.84
2019-04-14T07:04:30.106Z,7.93
2019-04-14T07:06:57.989Z,7.96
2019-04-14T07:09:26.080Z,7.98
2019-04-14T07:11:54.255Z,8.02
2019-04-14T07:14:22.482Z,8.04
2019-04-14T07:16:51.505Z,8.10
2019-04-14T07:19:19.642Z,8.13
2019-04-14T07:21:47.629Z,8.16
2019-04-14T07:24:16.524Z,8.17
2019-04-14T07:26:44.457Z,8.18
2019-04-14T07:29:14.710Z,8.23
2019-04-14T07:32:09.568Z,8.27
2019-04-14T07:34:54.573Z,8.36
2019-04-14T07:37:47.268Z,8.49
2019-04-14T07:40:31.274Z,8.56
2019-04-14T07:43:25.008Z,8.63
2019-04-14T07:46:09.910Z,8.66
2019-04-14T07:48:46.157Z,8.72
2019-04-14T07:51:35.069Z,8.75
2019-04-14T07:54:07.797Z,8.81
2019-04-14T07:57:01.096Z,8.85
2019-04-14T07:59:57.681Z,8.88
2019-04-14T08:02:43.761Z,8.96
2019-04-14T08:05:22.269Z,8.99
2019-04-14T08:07:51.092Z,9.07
2019-04-14T08:10:19.193Z,9.10
2019-04-14T08:12:48.460Z,9.13
2019-04-14T08:15:16.559Z,9.24
2019-04-14T08:17:44.574Z,9.29
2019-04-14T08:20:13.055Z,9.35
2019-04-14T08:22:40.962Z,9.50
2019-04-14T08:25:09.148Z,9.76
2019-04-14T08:27:37.166Z,10.02
2019-04-14T08:30:06.829Z,10.24
2019-04-14T08:32:34.777Z,10.52
2019-04-14T08:35:02.922Z,10.55
2019-04-14T08:37:30.845Z,10.55
2019-04-14T08:39:58.988Z,10.64
2019-04-14T08:42:42.734Z,10.67
2019-04-14T08:45:35.985Z,10.73
2019-04-14T08:48:32.739Z,10.78
2019-04-14T08:51:04.484Z,10.76
2019-04-14T08:53:58.858Z,10.77
2019-04-14T08:56:41.683Z,10.83
2019-04-14T08:59:27.884Z,10.86
2019-04-14T09:02:04.424Z,10.84
2019-04-14T09:04:51.810Z,10.78
2019-04-14T09:07:29.244Z,10.82
2019-04-14T09:10:16.571Z,10.83
2019-04-14T09:12:45.455Z,10.87
2019-04-14T09:15:13.539Z,10.97
2019-04-14T09:17:41.653Z,11.05
2019-04-14T09:20:10.276Z,11.08
2019-04-14T09:22:38.594Z,11.11
2019-04-14T09:25:06.672Z,11.17
2019-04-14T09:27:34.685Z,11.21
2019-04-14T09:30:03.783Z,11.32
2019-04-14T09:32:31.804Z,11.45
2019-04-14T09:34:59.648Z,11.58
2019-04-14T09:37:27.803Z,11.71
2019-04-14T09:39:55.874Z,11.86
2019-04-14T09:42:23.917Z,11.99
2019-04-14T09:44:51.768Z,12.08
2019-04-14T09:47:19.727Z,12.11
2019-04-14T09:49:47.781Z,12.31
2019-04-14T09:52:16.341Z,12.47
2019-04-14T09:54:44.351Z,12.50
2019-04-14T09:57:12.320Z,12.60
2019-04-14T09:59:40.983Z,12.79
2019-04-14T10:02:08.935Z,12.99
2019-04-14T10:04:36.956Z,13.10
2019-04-14T10:07:05.140Z,13.28
2019-04-14T10:09:33.239Z,13.44
2019-04-14T10:12:02.159Z,13.56
2019-04-14T10:14:30.122Z,13.67
2019-04-14T10:16:58.034Z,13.83
2019-04-14T10:19:25.911Z,14.04
2019-04-14T10:21:53.959Z,14.21
2019-04-14T10:24:21.942Z,14.31
2019-04-14T10:26:49.957Z,14.20
2019-04-14T10:29:18.069Z,14.24
2019-04-14T10:31:46.032Z,14.15
2019-04-14T10:34:14.002Z,14.33
2019-04-14T10:36:41.933Z,14.44
2019-04-14T10:39:10.040Z,14.66
2019-04-14T10:41:38.542Z,14.73
2019-04-14T10:44:06.768Z,14.50
2019-04-14T10:46:34.611Z,14.50
2019-04-14T10:49:02.702Z,14.54
2019-04-14T10:51:34.059Z,14.54
2019-04-14T10:54:02.615Z,14.87
2019-04-14T10:56:30.772Z,14.87
2019-04-14T10:58:58.911Z,14.76
2019-04-14T11:01:26.963Z,14.52
2019-04-14T11:03:55.015Z,14.61
2019-04-14T11:06:33.901Z,14.71
2019-04-14T11:09:02.055Z,14.71
2019-04-14T11:11:30.184Z,14.60
2019-04-14T11:13:58.209Z,14.49
2019-04-14T11:16:26.321Z,14.30
2019-04-14T11:18:54.335Z,14.25
2019-04-14T11:21:22.497Z,14.12
2019-04-14T11:23:50.517Z,14.12
2019-04-14T11:26:18.599Z,14.18
2019-04-14T11:28:46.650Z,14.08
2019-04-14T11:31:16.766Z,14.18
2019-04-14T11:34:09.767Z,14.36
2019-04-14T11:36:56.671Z,14.55
2019-04-14T11:39:24.770Z,14.55
2019-04-14T11:41:53.861Z,14.76
2019-04-14T11:44:22.033Z,14.76
2019-04-14T11:46:50.551Z,15.26
2019-04-14T11:49:18.661Z,15.26
2019-04-14T11:51:55.332Z,15.76
2019-04-14T11:54:20.235Z,15.76
2019-04-14T11:56:48.496Z,15.77
2019-04-14T11:59:19.071Z,16.03
2019-04-14T12:01:59.648Z,16.23
2019-04-14T12:04:47.581Z,16.37
2019-04-14T12:07:33.535Z,16.50
2019-04-14T12:10:04.535Z,16.33
2019-04-14T12:12:32.570Z,16.30
2019-04-14T12:15:01.263Z,16.39
2019-04-14T12:17:29.291Z,16.51
2019-04-14T12:19:57.456Z,16.58
2019-04-14T12:22:25.587Z,16.64
2019-04-14T12:24:53.484Z,16.82
2019-04-14T12:27:21.490Z,16.94
2019-04-14T12:29:50.091Z,17.02
2019-04-14T12:32:18.750Z,17.20
2019-04-14T12:34:46.751Z,17.21
2019-04-14T12:37:14.667Z,17.27
2019-04-14T12:39:43.595Z,16.87
2019-04-14T12:42:23.568Z,16.63
2019-04-14T12:45:16.984Z,16.45
2019-04-14T12:47:53.825Z,16.40
2019-04-14T12:50:32.024Z,16.31
2019-04-14T12:53:00.517Z,16.23
2019-04-14T12:55:28.542Z,16.21
2019-04-14T12:57:59.007Z,16.29
2019-04-14T13:00:33.115Z,16.51
2019-04-14T13:03:01.181Z,16.81
2019-04-14T13:05:29.277Z,16.81
2019-04-14T13:07:57.291Z,17.09
2019-04-14T13:10:26.482Z,17.09
2019-04-14T13:12:54.814Z,16.85
2019-04-14T13:15:22.868Z,16.85
2019-04-14T13:17:51.077Z,16.72
2019-04-14T13:20:19.086Z,16.78
2019-04-14T13:22:47.201Z,16.83
2019-04-14T13:25:15.268Z,17.06
2019-04-14T13:27:43.285Z,16.94
2019-04-14T13:30:13.930Z,16.99
2019-04-14T13:32:42.212Z,17.19
2019-04-14T13:35:10.427Z,17.27
2019-04-14T13:37:40.244Z,17.19
2019-04-14T13:40:09.043Z,17.47
2019-04-14T13:42:37.338Z,17.79
2019-04-14T13:45:06.167Z,17.54
2019-04-14T13:47:34.182Z,17.17
2019-04-14T13:50:02.156Z,16.95
2019-04-14T13:52:31.065Z,16.54
2019-04-14T13:54:59.473Z,16.74
2019-04-14T13:57:27.578Z,16.84
2019-04-14T13:59:55.534Z,17.03
2019-04-14T14:02:23.436Z,17.10
2019-04-14T14:04:51.379Z,17.07
2019-04-14T14:07:19.691Z,17.07
2019-04-14T14:09:47.807Z,17.22
2019-04-14T14:12:47.515Z,17.49
2019-04-14T14:15:41.111Z,17.48
2019-04-14T14:18:26.880Z,17.50
2019-04-14T14:21:08.911Z,17.38
2019-04-14T14:23:59.261Z,16.98
2019-04-14T14:26:27.936Z,16.92
2019-04-14T14:28:56.091Z,16.95
2019-04-14T14:31:24.341Z,17.11
2019-04-14T14:33:52.287Z,17.10
2019-04-14T14:36:20.863Z,16.86
2019-04-14T14:38:48.893Z,16.69
2019-04-14T14:41:17.455Z,16.85
2019-04-14T14:43:45.635Z,17.12
2019-04-14T14:46:26.679Z,17.19
2019-04-14T14:49:02.967Z,17.23
2019-04-14T14:51:59.445Z,17.21
2019-04-14T14:54:27.430Z,17.33
2019-04-14T14:56:55.364Z,17.15
2019-04-14T14:59:23.277Z,17.33
2019-04-14T15:01:51.357Z,17.39
2019-04-14T15:04:19.478Z,17.30
2019-04-14T15:06:47.649Z,17.19
2019-04-14T15:09:15.663Z,17.19
2019-04-14T15:11:43.890Z,17.09
2019-04-14T15:14:11.955Z,16.93
2019-04-14T15:16:40.147Z,16.82
2019-04-14T15:19:08.254Z,16.63
2019-04-14T15:21:36.320Z,16.65
2019-04-14T15:24:04.615Z,16.78
2019-04-14T15:26:32.562Z,16.83
2019-04-14T15:29:00.584Z,16.90
2019-04-14T15:31:28.651Z,16.76
2019-04-14T15:33:56.639Z,16.87
2019-04-14T15:36:24.612Z,16.69
2019-04-14T15:38:52.755Z,16.73
2019-04-14T15:41:20.834Z,16.76
2019-04-14T15:43:49.033Z,16.68
2019-04-14T15:46:17.051Z,16.68
2019-04-14T15:48:45.036Z,16.45
2019-04-14T15:51:12.971Z,16.54
2019-04-14T15:53:41.191Z,16.54
2019-04-14T15:56:16.215Z,16.72
2019-04-14T15:58:52.670Z,16.76
2019-04-14T16:01:42.979Z,16.78
2019-04-14T16:04:27.592Z,16.78
2019-04-14T16:07:04.917Z,16.60
2019-04-14T16:09:55.371Z,16.41
2019-04-14T16:12:41.615Z,16.36
2019-04-14T16:15:18.959Z,16.32
2019-04-14T16:17:54.328Z,16.27
2019-04-14T16:20:28.942Z,16.10
2019-04-14T16:22:56.946Z,16.03
2019-04-14T16:25:39.584Z,15.83
2019-04-14T16:28:14.156Z,15.83
2019-04-14T16:31:01.562Z,15.97
2019-04-14T16:33:33.871Z,16.32
2019-04-14T16:36:01.970Z,16.44
2019-04-14T16:38:30.023Z,16.65
2019-04-14T16:40:58.045Z,16.68
2019-04-14T16:43:26.534Z,16.71
2019-04-14T16:45:54.685Z,16.50
2019-04-14T16:48:22.636Z,16.47
2019-04-14T16:50:50.636Z,16.58
2019-04-14T16:53:25.329Z,16.71
2019-04-14T16:56:10.694Z,16.85
2019-04-14T16:58:59.973Z,16.67
2019-04-14T17:01:36.781Z,16.67
2019-04-14T17:04:05.410Z,16.82
2019-04-14T17:06:33.629Z,16.89
2019-04-14T17:09:06.728Z,16.80
2019-04-14T17:11:34.802Z,16.81
2019-04-14T17:14:25.357Z,16.86
2019-04-14T17:17:06.214Z,16.91
2019-04-14T17:19:52.406Z,16.88
2019-04-14T17:22:28.894Z,16.74
2019-04-14T17:25:01.779Z,16.82
2019-04-14T17:27:37.937Z,16.75
2019-04-14T17:30:41.496Z,16.75
2019-04-14T17:33:27.840Z,16.76
2019-04-14T17:36:19.485Z,16.73
2019-04-14T17:38:57.459Z,16.38
2019-04-14T17:41:40.051Z,16.04
2019-04-14T17:44:19.328Z,15.77
2019-04-14T17:47:01.085Z,15.60
2019-04-14T17:49:41.457Z,15.47
2019-04-14T17:52:27.407Z,15.32
2019-04-14T17:55:17.470Z,15.23
2019-04-14T17:57:52.833Z,15.08
2019-04-14T18:00:32.632Z,15.00
2019-04-14T18:03:05.219Z,14.68
2019-04-14T18:05:52.709Z,14.68
2019-04-14T18:08:40.236Z,14.59
2019-04-14T18:11:26.052Z,14.51
2019-04-14T18:13:59.850Z,14.42
2019-04-14T18:16:34.736Z,14.30
2019-04-14T18:19:25.013Z,14.21
2019-04-14T18:21:53.593Z,14.08
2019-04-14T18:24:21.381Z,13.94
2019-04-14T18:26:49.666Z,13.87
2019-04-14T18:29:49.274Z,13.79
2019-04-14T18:32:31.463Z,13.72
2019-04-14T18:35:11.546Z,13.84
2019-04-14T18:37:57.569Z,14.03
2019-04-14T18:40:47.664Z,14.27
2019-04-14T18:43:33.924Z,14.27
2019-04-14T18:46:21.554Z,14.28
2019-04-14T18:48:58.504Z,14.35
2019-04-14T18:51:47.593Z,14.59
2019-04-14T18:54:23.038Z,14.59
2019-04-14T18:57:29.172Z,14.65
2019-04-14T19:00:08.721Z,14.65
2019-04-14T19:02:37.195Z,14.30
2019-04-14T19:05:05.490Z,13.86
2019-04-14T19:07:33.566Z,13.63
2019-04-14T19:10:01.720Z,13.37
2019-04-14T19:12:49.138Z,13.32
2019-04-14T19:15:35.766Z,13.23
2019-04-14T19:18:11.747Z,12.88
2019-04-14T19:20:42.438Z,12.88
2019-04-14T19:23:10.576Z,12.69
2019-04-14T19:25:38.551Z,12.92
2019-04-14T19:28:06.580Z,12.92
2019-04-14T19:30:34.639Z,13.35
2019-04-14T19:33:02.632Z,13.33
2019-04-14T19:35:30.629Z,13.33
2019-04-14T19:37:58.594Z,12.99
2019-04-14T19:40:26.730Z,12.75
2019-04-14T19:42:55.232Z,12.68
2019-04-14T19:45:23.332Z,12.55
2019-04-14T19:47:51.292Z,12.36
2019-04-14T19:50:19.299Z,12.32
2019-04-14T19:52:47.324Z,12.25
2019-04-14T19:55:20.682Z,12.08
2019-04-14T19:57:45.922Z,12.06
2019-04-14T20:00:14.898Z,12.06
2019-04-14T20:02:43.765Z,12.07
2019-04-14T20:05:13.018Z,12.03
2019-04-14T20:07:41.901Z,11.97
2019-04-14T20:10:10.857Z,11.97
2019-04-14T20:12:38.863Z,11.86
2019-04-14T20:15:11.513Z,11.86
2019-04-14T20:17:54.881Z,11.82
2019-04-14T20:20:58.039Z,11.64
2019-04-14T20:23:39.560Z,11.60
2019-04-14T20:26:35.959Z,11.47
2019-04-14T20:29:13.279Z,11.43
2019-04-14T20:31:54.823Z,11.34
2019-04-14T20:34:23.067Z,11.28
2019-04-14T20:36:52.737Z,11.09
2019-04-14T20:39:22.415Z,11.10
2019-04-14T20:41:50.588Z,10.98
2019-04-14T20:44:20.438Z,10.98
2019-04-14T20:46:48.574Z,10.98
2019-04-14T20:49:16.967Z,10.98
2019-04-14T20:51:46.333Z,10.98
2019-04-14T20:54:16.137Z,10.88
2019-04-14T20:56:45.164Z,10.88
2019-04-14T20:59:13.330Z,10.75
2019-04-14T21:01:47.879Z,10.68
2019-04-14T21:04:22.218Z,10.66
2019-04-14T21:07:08.403Z,10.66
2019-04-14T21:09:46.331Z,10.62
2019-04-14T21:12:33.002Z,10.57
2019-04-14T21:15:26.504Z,10.47
2019-04-14T21:18:19.813Z,10.50
2019-04-14T21:21:01.996Z,10.42
2019-04-14T21:23:55.171Z,10.39
2019-04-14T21:26:45.822Z,10.38
2019-04-14T21:29:29.024Z,10.29
2019-04-14T21:32:02.600Z,10.21
2019-04-14T21:34:48.261Z,10.17
2019-04-14T21:37:25.846Z,10.12
2019-04-14T21:40:06.470Z,10.07
2019-04-14T21:42:34.488Z,10.09
2019-04-14T21:45:02.719Z,10.07
2019-04-14T21:47:30.649Z,9.95
2019-04-14T21:49:58.771Z,9.81
2019-04-14T21:52:37.043Z,9.70
2019-04-14T21:55:05.703Z,9.66
2019-04-14T21:57:44.888Z,9.62
2019-04-14T22:00:38.679Z,9.62
2019-04-14T22:03:31.312Z,9.63
2019-04-14T22:06:05.884Z,9.57
2019-04-14T22:08:37.750Z,9.44
2019-04-14T22:11:07.891Z,9.42
2019-04-14T22:13:35.792Z,9.42
2019-04-14T22:16:04.217Z,9.38
2019-04-14T22:18:32.142Z,9.29
2019-04-14T22:21:00.636Z,9.34
2019-04-14T22:23:28.498Z,9.37
2019-04-14T22:25:56.518Z,9.35
2019-04-14T22:28:24.454Z,9.33
2019-04-14T22:30:53.502Z,9.27
2019-04-14T22:33:21.540Z,9.20
2019-04-14T22:35:49.616Z,9.14
2019-04-14T22:38:17.666Z,9.06
2019-04-14T22:40:45.835Z,8.92
2019-04-14T22:43:13.868Z,8.89
2019-04-14T22:45:41.913Z,8.81
2019-04-14T22:48:09.917Z,8.78
2019-04-14T22:50:37.990Z,8.82
2019-04-14T22:53:06.003Z,8.83
2019-04-14T22:55:34.361Z,8.83
2019-04-14T22:58:02.245Z,8.85
2019-04-14T23:00:49.893Z,8.88
2019-04-14T23:03:43.312Z,8.87
2019-04-14T23:06:29.306Z,8.83
2019-04-14T23:09:20.212Z,8.82
2019-04-14T23:12:13.445Z,8.83
2019-04-14T23:14:50.545Z,8.80
2019-04-14T23:17:25.389Z,8.79
2019-04-14T23:20:12.871Z,8.78
2019-04-14T23:23:00.125Z,8.75
2019-04-14T23:25:28.299Z,8.73
2019-04-14T23:27:56.375Z,8.70
2019-04-14T23:30:24.265Z,8.67
2019-04-14T23:32:52.390Z,8.64
2019-04-14T23:35:20.364Z,8.63
2019-04-14T23:37:48.263Z,8.59
2019-04-14T23:40:16.398Z,8.57
2019-04-14T23:42:44.507Z,8.55
2019-04-14T23:45:12.971Z,8.50
2019-04-14T23:47:41.267Z,8.49
2019-04-14T23:50:09.396Z,8.45
2019-04-14T23:52:39.870Z,8.41
2019-04-14T23:55:08.511Z,8.39
2019-04-14T23:57:37.110Z,8.35
